Detalii statie ROAGROLTAL [00001D0B]

Toti senzorii

Date Temperatura solului [C]Precipitatii [mm]Voltaj baterie [mV]Leaf Wetness [Min]HC Air temperature [C]HC Relative humidity [%]Punctul de roua [C]
medieminmaxsumaultimatimpmedieminmaxmediemediemin
2019-02-21 00:00:00 4.8 4.8 5 0 6834 6.24 6.1 6.46 90.54 4.6 4.4
2019-02-21 01:00:00 4.8 4.7 5 0 6816 6.05 5.64 6.3 87.99 4.1 3.9
2019-02-21 02:00:00 4.7 4.6 4.9 0 6816 5.27 4.88 5.55 92.59 4 3.8
2019-02-21 03:00:00 4.6 4.5 4.7 0 6816 4.23 3.05 4.97 96.38 3.6 3
2019-02-21 04:00:00 4.5 4.4 4.8 0 6806 2.58 2.08 3.11 99.75 2.5 2
2019-02-21 05:00:00 4.3 4.2 4.5 0 6786 1.71 1.01 2.3 100 1.6 1
2019-02-21 06:00:00 4.1 4.1 4.3 0 6776 2.23 1.97 2.75 99.97 2.1 1.9
2019-02-21 07:00:00 4 3.9 4.2 0 6786 2.93 2.42 3.26 93.04 1.7 0.9
2019-02-21 08:00:00 3.9 3.8 4 0 6816 4.63 2.62 6 79.5 1.2 1
2019-02-21 09:00:00 3.8 3.7 3.9 0 7264 7.18 5.92 9.21 68.24 1.5 0.8
2019-02-21 10:00:00 3.9 3.8 4.1 0 7264 9.47 9.14 10.19 57.71 1.3 0.6
2019-02-21 11:00:00 4.3 4.2 4.5 0 7254 10.84 10.1 11.83 48.68 0.2 -0.2
2019-02-21 12:00:00 4.6 4.5 4.9 0 7254 12.06 11.67 12.53 45.95 0.5 0.2
2019-02-21 13:00:00 5.2 5.1 5.4 0 7254 12.81 12.15 13.5 45.24 1 0.1
2019-02-21 14:00:00 5.7 5.5 6 0 7246 12.81 12.26 13.36 45.38 1.1 0.5
2019-02-21 15:00:00 6 6 6.3 0 7254 12.42 11.68 13.35 50.2 2.1 1.2
2019-02-21 16:00:00 6.2 6.1 6.4 0 7246 12.48 11.83 13.26 54.51 3.4 3
2019-02-21 17:00:00 6.4 6.3 6.7 0 7216 11.6 10.84 12.23 54.24 2.4 0.5
2019-02-21 18:00:00 6.4 6.4 6.6 0 7118 9.67 8.76 10.58 51.78 0 -0.1
2019-02-21 19:00:00 6.2 6.1 6.4 0 7040 7.18 5.35 8.51 58.08 -0.5 -1.5
2019-02-21 20:00:00 5.9 5.8 6.1 0 6962 4.3 3.53 5.09 68.35 -1 -1.3
2019-02-21 21:00:00 5.6 5.5 5.7 0 6904 5.75 4.98 6.41 59.04 -1.7 -2.6
2019-02-21 22:00:00 5.4 5.3 5.5 0 6854 3.26 2.14 4.76 71.33 -1.4 -2.3
2019-02-21 23:00:00 5.1 5 5.3 0 6816 1.54 1.1 2.12 86.73 -0.4 -0.9
2019-02-22 00:00:00 4.8 4.7 5 0 6816 0.99 0.54 1.88 86.92 -0.9 -1.3
2019-02-22 01:00:00 4.6 4.4 4.8 0 6796 0.86 0.59 1.16 89.14 -0.7 -1
2019-02-22 02:00:00 4.4 4.3 4.6 0 6796 0.52 0.26 0.99 90.46 -0.8 -1.1
2019-02-22 03:00:00 4.2 4.1 4.4 0 6796 -0.29 -0.81 0.16 92.67 -1.2 -1.4
2019-02-22 04:00:00 4 4 4.1 0 6786 -0.55 -0.93 -0.28 95.2 -1.1 -1.4
2019-02-22 05:00:00 3.8 3.7 4 0 6766 -0.61 -1.16 -0.32 97.11 -0.9 -1
2019-02-22 06:00:00 3.7 3.6 3.9 0 6756 -0.92 -1.3 -0.52 99.95 -0.8 -1.2
2019-02-22 07:00:00 3.5 3.4 3.7 0 6766 0.01 -0.74 0.57 96.9 -0.3 -0.6
2019-02-22 08:00:00 3.5 3.5 3.6 0 6786 0.88 0.56 1.55 93.75 0 -0.4
2019-02-22 09:00:00 3.5 3.4 3.6 0 6894 2.67 1.61 3.56 91.94 1.3 0.7
2019-02-22 10:00:00 3.6 3.5 3.8 0 6982 4.29 3.83 4.57 79.67 0.9 0.7
2019-02-22 11:00:00 3.7 3.6 3.8 0 7080 4.33 4.13 4.5 81.83 1.3 0.9
2019-02-22 12:00:00 3.9 3.8 4 0.6 7158 3.96 3.82 4.31 97.85 3.5 2.5
2019-02-22 13:00:00 4 4 4.2 0.2 7236 4.25 3.82 4.63 100 4.2 3.8
2019-02-22 14:00:00 4.2 4.2 4.4 0 7254 4.68 4.44 4.85 100 4.6 4.4
2019-02-22 15:00:00 4.4 4.3 4.5 0.8 7246 4.6 4.43 4.77 100 4.5 4.4
2019-02-22 16:00:00 4.4 4.4 4.5 0.8 7226 2.28 0.87 4.53 100 2.2 0.8
2019-02-22 17:00:00 4.3 4.1 4.5 0 7158 -0.01 -0.37 0.76 100 0 -0.2
2019-02-22 18:00:00 4.1 4 4.2 0 7080 -0.65 -1.01 -0.29 100 -0.5 -0.9
2019-02-22 19:00:00 3.9 3.8 4.1 0 7000 -1.33 -1.51 -1.11 100 -1.1 -1.4
2019-02-22 20:00:00 3.7 3.6 3.8 0 6932 -2.07 -2.34 -1.57 98.14 -2.2 -2.9
2019-02-22 21:00:00 3.5 3.4 3.6 0 6874 -2.24 -2.37 -2.14 86.3 -4.1 -6.1
2019-02-22 22:00:00 3.2 3.1 3.5 0 6826 -2.5 -2.62 -2.37 74.05 -6.4 -6.9
2019-02-22 23:00:00 3 2.8 3.2 0 6806 -2.9 -3.02 -2.71 78.75 -6 -6.3